Time;durP1;ratioP1;P1;durP2;ratioP2;P2;SDS_P1;SDS_P2;PMS_P1;PMS_P2;Temp;Humidity;BMP_temperature;BMP_pressure;BME280_temperature;BME280_humidity;BME280_pressure;Samples;Min_cycle;Max_cycle;Signal;HPM_P1;HPM_P2
2022/01/14 00:02:12;;;;;;;0.20;0.20;;;;;;;0.32;61.68;96448.31;5132481;28;20470;-53
2022/01/14 00:04:41;;;;;;;0.30;0.30;;;;;;;0.08;58.38;96438.91;5132451;28;20434;-53
2022/01/14 00:07:10;;;;;;;0.20;0.20;;;;;;;0.43;72.94;96412.16;5132531;28;20427;-53
2022/01/14 00:09:39;;;;;;;0.33;0.33;;;;;;;1.03;58.71;96445.91;5132637;28;20458;-53
2022/01/14 00:12:15;;;;;;;0.20;0.20;;;;;;;0.81;56.26;96441.56;5132521;28;20466;-53
2022/01/14 00:14:56;;;;;;;0.50;0.30;;;;;;;0.78;61.08;96409.84;5132839;28;20486;-53
2022/01/14 00:17:26;;;;;;;0.70;0.70;;;;;;;0.54;55.76;96439.59;5132534;28;20919;-54
2022/01/14 00:19:54;;;;;;;0.20;0.20;;;;;;;0.53;58.67;96441.41;5132645;28;20506;-54
2022/01/14 00:22:25;;;;;;;0.20;0.20;;;;;;;0.59;57.31;96438.09;5132482;28;20981;-54
2022/01/14 00:33:16;;;;;;;0.30;0.20;;;;;;;0.91;55.79;96456.97;5132405;28;20434;-54
2022/01/14 00:35:46;;;;;;;0.30;0.30;;;;;;;1.15;54.89;96469.72;5132194;27;20446;-54
2022/01/14 00:38:15;;;;;;;0.20;0.20;;;;;;;1.41;54.44;96479.69;5132408;27;20438;-54
2022/01/14 00:40:43;;;;;;;1.47;0.40;;;;;;;0.71;52.78;96467.13;5132247;28;20941;-54
2022/01/14 00:43:12;;;;;;;0.20;0.20;;;;;;;0.23;55.49;96483.28;5133689;27;20910;-54
2022/01/14 00:45:41;;;;;;;0.20;0.20;;;;;;;-0.38;59.17;96484.25;5136348;27;20426;-54
2022/01/14 00:48:09;;;;;;;0.60;0.60;;;;;;;-0.46;64.04;96494.72;5136018;27;20434;-54
2022/01/14 00:50:44;;;;;;;0.20;0.20;;;;;;;-0.01;66.57;96482.50;5135974;27;21076;-54
2022/01/14 00:53:13;;;;;;;0.30;0.10;;;;;;;-1.50;69.49;96258.41;5135827;27;20430;-54
2022/01/14 00:55:52;;;;;;;0.40;0.40;;;;;;;-4.41;68.45;95917.16;5136294;27;20505;-55
2022/01/14 01:01:06;;;;;;;0.40;0.40;;;;;;;-0.56;72.40;96455.88;5135495;27;20481;-54
2022/01/14 01:03:35;;;;;;;0.20;0.20;;;;;;;-0.87;72.42;96409.03;5135766;27;20422;-54
2022/01/14 01:06:06;;;;;;;0.20;0.20;;;;;;;0.13;77.59;96439.19;5136007;27;20487;-54
2022/01/14 01:08:36;;;;;;;1.50;0.77;;;;;;;0.87;93.26;96443.47;5135993;27;20513;-54
2022/01/14 01:11:06;;;;;;;3.13;1.50;;;;;;;0.31;69.76;96449.28;5134596;27;21030;-54
2022/01/14 01:13:37;;;;;;;0.30;0.20;;;;;;;-0.16;68.30;96457.38;5135521;27;20995;-54
2022/01/14 01:16:06;;;;;;;0.20;0.20;;;;;;;-0.14;67.26;96466.63;5135059;27;20438;-54
2022/01/14 01:18:35;;;;;;;0.20;0.20;;;;;;;0.38;66.77;96465.88;5135736;27;20779;-54
2022/01/14 01:21:04;;;;;;;0.30;0.30;;;;;;;0.55;63.73;96470.75;5135212;27;20422;-54
2022/01/14 01:23:33;;;;;;;1.93;1.90;;;;;;;0.52;63.69;96471.09;5135361;27;20434;-54
2022/01/14 01:26:10;;;;;;;0.20;0.20;;;;;;;0.30;66.36;96471.97;5135655;27;20507;-54
2022/01/14 01:28:53;;;;;;;0.20;0.20;;;;;;;0.24;65.99;96451.81;5135289;27;20513;-54
2022/01/14 01:34:09;;;;;;;4.63;0.57;;;;;;;0.67;61.44;96450.22;5135424;27;20422;-54
2022/01/14 01:36:40;;;;;;;2.47;2.47;;;;;;;0.06;63.90;96448.72;5135199;27;20500;-54
2022/01/14 01:39:11;;;;;;;0.90;0.90;;;;;;;0.09;66.36;96450.97;5134375;27;20654;-54
2022/01/14 01:41:42;;;;;;;0.20;0.10;;;;;;;0.21;64.17;96446.13;5134913;27;20427;-54
2022/01/14 01:44:12;;;;;;;0.20;0.20;;;;;;;-0.56;67.21;96442.84;5134123;27;20477;-54
2022/01/14 01:46:43;;;;;;;0.20;0.20;;;;;;;-0.45;67.91;96405.97;5134055;27;20431;-54
2022/01/14 01:49:12;;;;;;;0.20;0.10;;;;;;;0.24;64.58;96443.19;5134721;27;20942;-54
2022/01/14 01:51:44;;;;;;;0.20;0.20;;;;;;;0.63;70.24;96438.56;5134779;27;20969;-54
2022/01/14 01:54:13;;;;;;;0.40;0.40;;;;;;;0.21;65.11;96438.31;5134270;27;20438;-54
2022/01/14 01:56:42;;;;;;;0.40;0.40;;;;;;;0.12;65.33;96442.00;5134278;27;20442;-54
2022/01/14 01:59:10;;;;;;;0.20;0.20;;;;;;;0.59;66.83;96434.66;5133877;27;20423;-54
2022/01/14 02:01:40;;;;;;;0.30;0.30;;;;;;;0.42;62.75;96428.00;5134527;27;20994;-54
2022/01/14 02:04:09;;;;;;;1.37;1.37;;;;;;;0.19;63.50;96422.84;5134305;27;20619;-54
2022/01/14 02:06:38;;;;;;;0.30;0.20;;;;;;;0.47;62.90;96415.25;5134071;27;20435;-54
2022/01/14 02:09:09;;;;;;;0.20;0.13;;;;;;;0.34;62.18;96381.16;5134175;27;20503;-54
2022/01/14 02:11:38;;;;;;;0.20;0.20;;;;;;;0.40;61.87;96406.53;5134267;27;20609;-54
2022/01/14 02:14:26;;;;;;;0.20;0.20;;;;;;;0.22;62.49;96401.66;5134333;27;20560;-54
2022/01/14 02:22:46;;;;;;;0.30;0.30;;;;;;;0.61;61.96;96393.53;5133802;27;20517;-54
2022/01/14 02:25:15;;;;;;;0.20;0.20;;;;;;;0.60;60.26;96378.91;5134264;27;20423;-54
2022/01/14 02:27:45;;;;;;;0.20;0.20;;;;;;;-2.24;64.62;96055.56;5133505;27;20930;-54
2022/01/14 02:30:14;;;;;;;0.30;0.30;;;;;;;-0.78;68.34;96374.16;5133455;27;20505;-54
2022/01/14 02:32:42;;;;;;;0.50;0.50;;;;;;;-1.83;73.70;96324.50;5133949;27;20889;-54
2022/01/14 02:35:12;;;;;;;0.50;0.50;;;;;;;-1.72;79.59;96373.50;5133180;27;20430;-54
2022/01/14 02:37:43;;;;;;;0.20;0.20;;;;;;;-1.27;79.29;96372.84;5134153;27;20419;-54
2022/01/14 02:40:13;;;;;;;0.30;0.20;;;;;;;-1.64;77.09;96349.25;5133533;27;20816;-54
2022/01/14 02:42:41;;;;;;;1.43;0.40;;;;;;;-1.72;81.19;96376.09;5134001;27;20427;-54
2022/01/14 02:45:12;;;;;;;0.70;0.70;;;;;;;-1.09;78.65;96377.78;5133714;27;20423;-54
2022/01/14 02:47:40;;;;;;;0.20;0.20;;;;;;;-0.48;72.25;96374.28;5133636;27;20910;-54
2022/01/14 02:50:14;;;;;;;0.30;0.30;;;;;;;-1.14;70.10;96265.63;5133495;27;20462;-54
2022/01/14 02:52:56;;;;;;;0.37;0.37;;;;;;;-0.42;69.92;96382.19;5133465;27;20477;-54
2022/01/14 02:55:29;;;;;;;0.20;0.20;;;;;;;-0.26;68.04;96379.47;5133691;27;20546;-54
2022/01/14 02:58:00;;;;;;;0.20;0.20;;;;;;;0.01;66.41;96372.84;5133422;27;20483;-54
2022/01/14 03:00:30;;;;;;;0.30;0.30;;;;;;;0.19;64.73;96370.72;5133419;27;20546;-54
2022/01/14 03:03:01;;;;;;;0.20;0.20;;;;;;;0.08;65.19;96372.97;5133122;27;20548;-54
2022/01/14 03:05:31;;;;;;;0.20;0.20;;;;;;;0.24;68.73;96359.75;5132738;27;20491;-54
2022/01/14 03:08:01;;;;;;;0.20;0.20;;;;;;;-0.15;68.03;96355.56;5133340;27;20495;-54
2022/01/14 03:10:29;;;;;;;1.47;1.47;;;;;;;-0.71;70.15;96358.69;5133235;27;20651;-54
2022/01/14 03:12:58;;;;;;;0.77;0.77;;;;;;;-6.45;69.83;95418.25;5133169;27;20492;-54
2022/01/14 03:15:26;;;;;;;0.20;0.20;;;;;;;-0.40;69.49;96324.72;5133183;27;20467;-54
2022/01/14 03:17:55;;;;;;;0.20;0.20;;;;;;;-0.07;67.42;96324.25;5133081;27;20459;-54
2022/01/14 03:20:45;;;;;;;0.50;0.50;;;;;;;0.33;65.95;96353.47;5133088;27;20484;-54
2022/01/14 03:23:16;;;;;;;0.20;0.20;;;;;;;0.44;62.89;96351.22;5132944;27;20977;-54
2022/01/14 03:25:51;;;;;;;0.20;0.20;;;;;;;0.03;64.91;96367.47;5133149;27;20450;-54
2022/01/14 03:28:22;;;;;;;0.20;0.20;;;;;;;-0.77;70.92;96364.56;5132793;27;20426;-54
2022/01/14 03:30:53;;;;;;;0.20;0.20;;;;;;;-0.56;70.63;96367.34;5132932;27;20415;-54
2022/01/14 03:33:22;;;;;;;0.20;0.20;;;;;;;-1.26;73.29;96326.84;5133069;27;20505;-54
2022/01/14 03:35:51;;;;;;;0.30;0.20;;;;;;;-1.29;78.35;96346.97;5132815;27;20843;-54
2022/01/14 03:38:21;;;;;;;0.27;0.17;;;;;;;-1.39;79.66;96355.97;5132746;27;20473;-54
2022/01/14 03:40:49;;;;;;;0.30;0.30;;;;;;;-1.39;81.90;96362.00;5131992;27;20415;-54
2022/01/14 03:43:18;;;;;;;0.20;0.20;;;;;;;-0.83;78.04;96340.03;5132638;27;20422;-54
2022/01/14 03:45:49;;;;;;;0.20;0.20;;;;;;;-0.44;74.37;96345.09;5132635;27;20426;-54
2022/01/14 03:48:17;;;;;;;0.20;0.20;;;;;;;-1.22;74.00;96312.50;5132595;27;20479;-54
2022/01/14 03:50:46;;;;;;;0.20;0.20;;;;;;;-0.35;76.05;96341.44;5132627;27;20431;-54
2022/01/14 03:53:15;;;;;;;2.07;2.00;;;;;;;-0.40;73.37;96335.13;5132352;27;20475;-53
2022/01/14 03:55:45;;;;;;;1.17;1.17;;;;;;;-0.81;73.32;96326.88;5132491;27;20418;-54
2022/01/14 03:58:33;;;;;;;0.30;0.20;;;;;;;-0.45;73.71;96343.47;5132235;28;20535;-54
2022/01/14 04:01:02;;;;;;;0.30;0.20;;;;;;;-0.31;71.52;96324.50;5131808;28;20454;-54
2022/01/14 04:03:30;;;;;;;0.20;0.20;;;;;;;-0.27;70.61;96325.75;5132387;28;20438;-54
2022/01/14 04:05:59;;;;;;;0.20;0.20;;;;;;;-0.39;69.63;96282.88;5132244;28;20491;-54
2022/01/14 04:08:27;;;;;;;0.20;0.17;;;;;;;-1.48;73.96;96284.22;5132376;28;20469;-54
2022/01/14 04:11:00;;;;;;;1.13;1.13;;;;;;;-1.40;80.18;96333.56;5132289;28;20999;-54
2022/01/14 04:13:38;;;;;;;0.20;0.20;;;;;;;-1.01;78.36;96333.50;5131951;28;20474;-54
2022/01/14 04:16:07;;;;;;;0.20;0.20;;;;;;;-1.34;77.38;96288.66;5132521;28;20487;-54
2022/01/14 04:18:36;;;;;;;0.20;0.20;;;;;;;-1.22;77.60;96323.72;5136392;27;20426;-54
2022/01/14 04:21:04;;;;;;;0.30;0.30;;;;;;;-1.27;79.19;96314.81;5136816;27;20785;-54
2022/01/14 04:23:33;;;;;;;0.27;0.20;;;;;;;-1.43;79.94;96284.50;5136003;27;20475;-54
2022/01/14 04:26:04;;;;;;;0.20;0.20;;;;;;;-0.95;78.79;96304.19;5136797;27;20494;-54
2022/01/14 04:28:35;;;;;;;0.30;0.20;;;;;;;-1.13;79.14;96307.06;5136254;27;20422;-54
2022/01/14 04:31:06;;;;;;;1.00;1.00;;;;;;;-1.42;82.30;96305.13;5136329;27;20514;-54
2022/01/14 04:33:35;;;;;;;0.30;0.20;;;;;;;-1.48;81.59;96303.22;5136375;27;20534;-54
2022/01/14 04:36:04;;;;;;;0.20;0.20;;;;;;;-1.44;82.34;96309.69;5136528;27;20499;-54
2022/01/14 04:38:33;;;;;;;0.60;0.60;;;;;;;-1.38;81.78;96308.19;5136066;27;20979;-54
2022/01/14 04:41:04;;;;;;;0.20;0.20;;;;;;;-1.38;81.75;96303.81;5136367;27;20430;-54
2022/01/14 04:43:32;;;;;;;0.40;0.40;;;;;;;-1.70;81.07;96244.22;5136230;27;20550;-54
2022/01/14 04:46:35;;;;;;;3.33;2.07;;;;;;;-1.50;82.37;96310.38;5136060;27;20423;-53
2022/01/14 04:49:03;;;;;;;0.30;0.20;;;;;;;-1.65;85.83;96317.28;5136062;27;20434;-53
2022/01/14 04:51:31;;;;;;;1.13;1.13;;;;;;;-1.74;86.96;96313.09;5135443;27;20430;-53
2022/01/14 04:54:02;;;;;;;4.83;1.50;;;;;;;-1.42;84.78;96309.53;5136081;27;20510;-53
2022/01/14 04:56:34;;;;;;;0.30;0.30;;;;;;;-1.39;82.91;96303.97;5135544;27;20446;-53
2022/01/14 04:59:02;;;;;;;1.03;0.80;;;;;;;-1.36;83.34;96298.44;5135997;27;20828;-53
2022/01/14 05:01:32;;;;;;;0.53;0.53;;;;;;;-1.34;83.43;96288.66;5135523;27;21092;-53
2022/01/14 05:04:01;;;;;;;0.30;0.30;;;;;;;-1.61;85.48;96266.56;5135674;27;20447;-53
2022/01/14 05:06:30;;;;;;;1.53;1.47;;;;;;;-1.50;85.73;96278.38;5135066;27;20459;-54
2022/01/14 05:08:59;;;;;;;0.50;0.50;;;;;;;-1.59;86.28;96290.59;5136042;27;20481;-53
2022/01/14 05:11:38;;;;;;;0.50;0.50;;;;;;;-1.83;86.98;96292.50;5135570;27;20926;-53
2022/01/14 05:14:08;;;;;;;3.97;2.93;;;;;;;-1.55;86.52;96283.28;5135273;27;21020;-53
2022/01/14 05:16:36;;;;;;;1.33;1.33;;;;;;;-1.51;85.70;96264.56;5135705;27;20423;-53
2022/01/14 05:19:05;;;;;;;0.30;0.20;;;;;;;-1.44;83.98;96278.50;5135727;27;20495;-53
2022/01/14 05:21:33;;;;;;;1.13;1.13;;;;;;;-1.52;85.59;96275.94;5135026;27;20465;-53
2022/01/14 05:24:02;;;;;;;0.60;0.60;;;;;;;-1.41;84.21;96272.13;5135663;27;20493;-53
2022/01/14 05:26:30;;;;;;;0.30;0.30;;;;;;;-1.96;85.05;96217.72;5135284;27;20418;-54
2022/01/14 05:28:58;;;;;;;1.00;1.00;;;;;;;-1.12;81.53;96269.69;5134804;27;20784;-54
2022/01/14 05:31:47;;;;;;;1.07;1.07;;;;;;;-1.40;81.27;96264.19;5135387;27;20427;-53
2022/01/14 05:34:16;;;;;;;0.30;0.20;;;;;;;-1.48;82.65;96266.00;5135315;27;20565;-54
2022/01/14 05:36:45;;;;;;;0.43;0.43;;;;;;;-1.48;82.72;96246.03;5135463;27;20427;-54
2022/01/14 05:39:13;;;;;;;0.80;0.80;;;;;;;-1.40;81.04;96266.78;5134821;27;20431;-53
2022/01/14 05:41:42;;;;;;;0.40;0.40;;;;;;;-1.45;82.02;96269.09;5134819;27;20435;-53
2022/01/14 05:44:10;;;;;;;1.70;1.70;;;;;;;-1.69;84.55;96256.22;5135170;27;20499;-54
2022/01/14 05:46:39;;;;;;;1.67;1.67;;;;;;;-1.80;89.82;96266.19;5134861;27;20495;-54
2022/01/14 05:49:09;;;;;;;3.63;1.63;;;;;;;-1.64;87.08;96269.50;5135140;27;20879;-53
2022/01/14 05:51:37;;;;;;;0.97;0.97;;;;;;;-1.39;85.75;96270.16;5135034;27;20495;-54
2022/01/14 05:54:06;;;;;;;0.60;0.60;;;;;;;-2.88;89.00;96126.72;5134049;27;20478;-54
2022/01/14 05:56:35;;;;;;;1.10;1.10;;;;;;;-1.82;89.32;96278.53;5134496;27;20442;-54
2022/01/14 05:59:03;;;;;;;0.30;0.20;;;;;;;-1.94;90.54;96276.31;5134983;27;20552;-53
2022/01/14 06:01:32;;;;;;;1.07;0.97;;;;;;;-1.84;89.22;96281.28;5134532;27;20470;-54
2022/01/14 06:04:01;;;;;;;1.60;1.60;;;;;;;-1.72;89.66;96274.72;5134454;27;20434;-53
2022/01/14 06:06:32;;;;;;;1.97;1.83;;;;;;;-1.89;89.19;96273.19;5134586;27;20475;-53
2022/01/14 06:09:00;;;;;;;0.20;0.20;;;;;;;-2.04;91.76;96269.69;5134368;27;20427;-53
2022/01/14 06:11:29;;;;;;;0.37;0.23;;;;;;;-1.69;90.59;96269.19;5134839;27;20509;-53
2022/01/14 06:13:58;;;;;;;0.30;0.30;;;;;;;-1.64;89.71;96271.28;5134163;27;20470;-53
2022/01/14 06:16:26;;;;;;;0.30;0.20;;;;;;;-1.45;89.02;96268.28;5134641;27;20446;-54
2022/01/14 06:18:55;;;;;;;0.97;0.97;;;;;;;-1.62;88.61;96267.53;5134110;27;20427;-53
2022/01/14 06:21:23;;;;;;;1.30;1.30;;;;;;;-1.60;90.36;96275.19;5134234;27;20914;-53
2022/01/14 06:23:54;;;;;;;0.87;0.87;;;;;;;-1.59;90.85;96272.41;5134139;27;20427;-53
2022/01/14 06:26:23;;;;;;;0.33;0.33;;;;;;;-1.50;90.09;96270.56;5134155;27;20442;-53
2022/01/14 06:28:52;;;;;;;1.73;1.73;;;;;;;-1.69;91.32;96269.19;5134039;27;20427;-53
2022/01/14 06:31:20;;;;;;;0.57;0.57;;;;;;;-1.55;91.60;96280.69;5134114;27;20469;-53
2022/01/14 06:33:49;;;;;;;1.33;1.33;;;;;;;-1.10;88.32;96264.28;5133674;27;20465;-53
2022/01/14 06:36:18;;;;;;;0.73;0.63;;;;;;;-1.04;84.00;96208.97;5133989;27;20462;-53
2022/01/14 06:38:46;;;;;;;0.50;0.50;;;;;;;-0.15;80.34;96253.16;5133656;27;20525;-53
2022/01/14 06:41:16;;;;;;;5.80;1.13;;;;;;;-0.14;79.35;96252.19;5132832;27;20487;-53
2022/01/14 06:43:45;;;;;;;0.50;0.50;;;;;;;0.29;76.11;96248.72;5134067;27;20858;-53
2022/01/14 06:46:13;;;;;;;0.73;0.73;;;;;;;0.73;71.96;96248.63;5133797;27;20429;-54
2022/01/14 06:48:42;;;;;;;0.40;0.37;;;;;;;0.52;70.38;96245.97;5133539;27;20462;-53
2022/01/14 06:51:15;;;;;;;1.80;1.33;;;;;;;0.71;68.74;96252.41;5133542;27;20894;-53
2022/01/14 06:53:46;;;;;;;1.80;1.40;;;;;;;1.01;65.92;96246.88;5133616;27;20469;-55
2022/01/14 06:56:16;;;;;;;0.60;0.60;;;;;;;0.91;66.21;96256.03;5133601;27;20423;-54
2022/01/14 06:58:45;;;;;;;0.97;0.77;;;;;;;1.47;62.44;96252.47;5133282;27;20464;-52
2022/01/14 07:01:24;;;;;;;0.30;0.30;;;;;;;1.61;62.56;96248.16;5109433;27;20565;-53
2022/01/14 07:03:53;;;;;;;0.70;0.70;;;;;;;2.55;59.51;96245.59;5109600;28;20436;-53
2022/01/14 07:06:21;;;;;;;0.50;0.50;;;;;;;2.75;55.94;96200.38;5109527;28;20449;-53
2022/01/14 07:08:49;;;;;;;1.50;1.50;;;;;;;2.47;56.34;96240.56;5109089;28;20943;-53
2022/01/14 07:11:18;;;;;;;1.70;1.70;;;;;;;2.90;55.80;96230.63;5108498;28;20431;-53
2022/01/14 07:13:47;;;;;;;0.30;0.30;;;;;;;3.20;53.99;96207.47;5109237;28;20427;-52
2022/01/14 07:16:15;;;;;;;2.30;2.10;;;;;;;2.99;53.69;96108.97;5109328;28;20457;-53
2022/01/14 07:18:48;;;;;;;0.63;0.63;;;;;;;4.22;51.59;96210.31;5109050;28;20554;-53
2022/01/14 07:21:16;;;;;;;1.53;0.70;;;;;;;4.54;49.98;96212.00;5109165;28;20463;-52
2022/01/14 07:23:45;;;;;;;15.40;3.50;;;;;;;4.98;50.05;96230.31;5108999;28;20428;-51
2022/01/14 07:26:14;;;;;;;2.07;1.97;;;;;;;4.88;46.94;96206.34;5107640;28;20428;-52
2022/01/14 07:28:42;;;;;;;4.70;3.10;;;;;;;4.74;47.89;96175.94;5109064;28;20436;-51
2022/01/14 07:31:14;;;;;;;2.03;1.93;;;;;;;4.78;46.44;96197.34;5109233;28;20478;-51
2022/01/14 07:33:42;;;;;;;0.87;0.87;;;;;;;4.97;46.44;96212.97;5109128;28;20424;-51
2022/01/14 07:36:15;;;;;;;0.53;0.53;;;;;;;5.94;45.57;96207.13;5108623;28;20432;-51
2022/01/14 07:38:43;;;;;;;0.80;0.80;;;;;;;7.21;41.70;96161.28;5108727;28;20431;-52
2022/01/14 07:41:12;;;;;;;1.07;1.07;;;;;;;6.66;40.58;96129.06;5108651;28;20463;-53
2022/01/14 07:43:41;;;;;;;2.70;0.80;;;;;;;7.52;39.95;96196.06;5107950;28;20986;-51
2022/01/14 07:46:09;;;;;;;1.03;1.03;;;;;;;6.90;39.32;96027.97;5108344;28;20431;-50
2022/01/14 07:48:38;;;;;;;3.23;2.93;;;;;;;6.88;41.69;96188.16;5108650;28;20428;-51
2022/01/14 07:51:08;;;;;;;2.30;2.23;;;;;;;6.58;42.43;96111.75;5108407;28;20578;-51
2022/01/14 07:53:39;;;;;;;4.40;2.67;;;;;;;7.53;41.65;96173.94;5108539;28;20449;-51
2022/01/14 07:56:13;;;;;;;1.70;1.60;;;;;;;7.03;41.72;96172.72;5108833;28;20570;-51
2022/01/14 07:58:43;;;;;;;1.00;0.90;;;;;;;6.81;41.03;96182.94;5108158;28;21000;-51
2022/01/14 08:01:11;;;;;;;7.23;4.40;;;;;;;7.98;39.09;96145.09;5108168;28;20475;-51
2022/01/14 08:03:40;;;;;;;0.73;0.73;;;;;;;8.91;37.07;96144.78;5108367;28;20423;-53
2022/01/14 08:06:10;;;;;;;1.43;1.17;;;;;;;8.50;36.67;96158.31;5108334;28;20451;-53
2022/01/14 08:08:40;;;;;;;2.70;2.57;;;;;;;8.40;37.92;96174.75;5108548;28;20459;-52
2022/01/14 08:11:08;;;;;;;2.97;1.80;;;;;;;8.37;37.68;96175.25;5103664;28;20445;-53
2022/01/14 08:13:37;;;;;;;2.40;2.30;;;;;;;8.82;37.93;96180.59;5094867;28;20466;-54
2022/01/14 08:16:06;;;;;;;2.17;2.07;;;;;;;9.32;36.31;96180.66;5094414;28;20466;-55
2022/01/14 08:18:36;;;;;;;3.10;1.63;;;;;;;9.07;35.58;96055.94;5094853;28;20831;-56
2022/01/14 08:21:07;;;;;;;7.03;5.07;;;;;;;9.61;35.69;96179.53;5094490;28;20533;-55
2022/01/14 08:23:36;;;;;;;1.47;1.37;;;;;;;10.97;33.91;96170.69;5094658;28;20463;-56
2022/01/14 08:26:06;;;;;;;1.27;1.20;;;;;;;10.88;33.84;96166.09;5094449;28;20420;-57
2022/01/14 08:28:35;;;;;;;1.57;1.33;;;;;;;11.69;31.92;96141.06;5093783;28;20836;-57
2022/01/14 08:31:03;;;;;;;4.73;3.53;;;;;;;9.88;34.17;96056.03;5093398;28;20444;-57
2022/01/14 08:33:32;;;;;;;3.30;3.00;;;;;;;10.91;32.56;96123.13;5094118;28;20432;-57
2022/01/14 08:36:01;;;;;;;2.00;1.37;;;;;;;11.03;32.86;96111.31;5094450;28;20424;-57
2022/01/14 08:38:29;;;;;;;1.53;0.90;;;;;;;10.96;31.88;96128.47;5094007;28;20436;-56
2022/01/14 08:41:00;;;;;;;4.43;4.20;;;;;;;10.78;32.99;96097.81;5094406;28;20517;-57
2022/01/14 08:43:31;;;;;;;3.37;2.73;;;;;;;11.60;31.37;96111.50;5094166;28;20432;-57
2022/01/14 08:46:01;;;;;;;1.63;1.60;;;;;;;11.66;31.44;96114.97;5094259;28;20464;-57
2022/01/14 08:48:31;;;;;;;4.33;2.50;;;;;;;11.72;29.88;96037.75;5093906;28;20447;-57
2022/01/14 08:51:00;;;;;;;3.17;1.40;;;;;;;12.22;29.83;96095.63;5093411;28;20425;-57
2022/01/14 08:53:29;;;;;;;7.67;4.10;;;;;;;11.96;30.09;96104.56;5093814;28;20889;-57
2022/01/14 08:55:57;;;;;;;3.10;2.90;;;;;;;11.12;31.00;96098.38;5092548;28;20932;-57
2022/01/14 08:58:27;;;;;;;5.40;2.87;;;;;;;11.83;31.01;96103.16;5093765;28;20482;-57
2022/01/14 09:00:56;;;;;;;2.03;1.83;;;;;;;11.66;30.76;96101.69;5093249;28;20479;-56
2022/01/14 09:03:25;;;;;;;5.50;2.13;;;;;;;12.21;29.34;96082.59;5093798;28;20460;-56
2022/01/14 09:05:54;;;;;;;11.63;3.43;;;;;;;11.73;29.80;96089.03;5093834;28;20452;-55
2022/01/14 09:08:22;;;;;;;2.50;2.30;;;;;;;11.54;30.58;96077.19;5093073;28;20438;-55
2022/01/14 09:10:51;;;;;;;3.60;3.30;;;;;;;10.99;31.24;96077.59;5092718;28;20456;-55
2022/01/14 09:13:19;;;;;;;5.20;1.53;;;;;;;11.98;32.21;96067.91;5093227;28;20468;-55
2022/01/14 09:15:48;;;;;;;0.93;0.93;;;;;;;11.58;32.04;96065.00;5092440;28;20429;-55
2022/01/14 09:18:18;;;;;;;2.20;1.13;;;;;;;12.07;31.45;96045.88;5093264;28;20425;-55
2022/01/14 09:20:46;;;;;;;4.10;2.70;;;;;;;12.29;30.57;96034.25;5093001;28;20464;-55
2022/01/14 09:23:17;;;;;;;3.13;1.30;;;;;;;13.25;30.21;96024.53;5091806;28;20420;-54
2022/01/14 09:25:46;;;;;;;1.40;0.60;;;;;;;11.43;32.19;96024.03;5092977;28;20517;-54
2022/01/14 09:28:14;;;;;;;1.80;1.63;;;;;;;12.44;31.30;96027.13;5092812;28;20436;-54
2022/01/14 09:30:43;;;;;;;2.13;1.93;;;;;;;12.59;30.72;96019.16;5093304;28;20501;-54
2022/01/14 09:33:11;;;;;;;1.30;1.30;;;;;;;12.60;30.19;96010.13;5092879;28;20424;-55
2022/01/14 09:35:41;;;;;;;25.27;2.10;;;;;;;12.85;30.01;96001.34;5093065;28;21131;-54
2022/01/14 09:38:09;;;;;;;1.80;1.70;;;;;;;13.01;29.51;96002.94;5092339;28;20494;-54
2022/01/14 09:40:42;;;;;;;1.80;1.70;;;;;;;12.94;29.64;95993.63;5092349;28;20912;-65
2022/01/14 09:43:13;;;;;;;5.70;1.93;;;;;;;13.88;29.96;95981.19;5092888;28;20456;-64
2022/01/14 09:46:01;;;;;;;3.03;2.80;;;;;;;12.80;29.76;95979.28;5092426;28;20421;-64
2022/01/14 09:48:30;;;;;;;1.93;1.83;;;;;;;13.06;29.62;95971.03;5092455;28;20524;-64
2022/01/14 09:51:01;;;;;;;3.37;2.43;;;;;;;12.01;30.24;95923.91;5092766;28;20464;-64
2022/01/14 09:53:30;;;;;;;0.50;0.50;;;;;;;13.59;28.66;95960.78;5092761;28;20952;-64
2022/01/14 09:55:59;;;;;;;1.83;1.73;;;;;;;13.75;29.13;95955.13;5092372;28;20916;-65
2022/01/14 09:58:34;;;;;;;11.80;1.70;;;;;;;14.67;28.30;95948.19;5092485;28;20926;-54
2022/01/14 10:01:10;;;;;;;0.83;0.83;;;;;;;16.63;26.65;95941.63;5092245;28;20487;-54
2022/01/14 10:03:53;;;;;;;2.97;2.33;;;;;;;15.01;26.84;95935.63;5092369;28;20455;-54
2022/01/14 10:06:45;;;;;;;1.33;0.87;;;;;;;15.73;27.15;95926.59;5091114;28;20428;-58
2022/01/14 10:09:17;;;;;;;0.70;0.60;;;;;;;16.73;25.76;95780.88;5092424;28;20468;-53
2022/01/14 10:12:00;;;;;;;3.37;2.57;;;;;;;15.89;26.35;95897.75;5092165;28;20478;-55
2022/01/14 10:14:30;;;;;;;3.53;1.97;;;;;;;15.46;27.37;95896.97;5092408;28;20463;-54
2022/01/14 10:17:02;;;;;;;1.00;1.00;;;;;;;18.22;26.92;95882.56;5092103;28;20846;-54
2022/01/14 10:19:36;;;;;;;0.80;0.70;;;;;;;18.84;27.42;95869.28;5092151;28;20450;-54
2022/01/14 10:22:20;;;;;;;2.77;2.57;;;;;;;16.34;25.04;95776.72;5092266;28;20587;-54
2022/01/14 10:24:57;;;;;;;1.70;1.47;;;;;;;16.48;24.93;95812.34;5091842;28;20420;-54
2022/01/14 10:27:37;;;;;;;2.70;2.60;;;;;;;16.69;25.51;95842.25;5092027;28;20450;-54
2022/01/14 10:30:15;;;;;;;3.20;2.10;;;;;;;16.72;26.31;95843.53;5092029;28;20432;-54
2022/01/14 10:32:46;;;;;;;3.43;3.23;;;;;;;16.34;25.53;95827.53;5092074;28;20427;-54
2022/01/14 10:35:16;;;;;;;4.97;2.47;;;;;;;16.02;26.71;95818.69;5091777;28;20433;-55
2022/01/14 10:37:48;;;;;;;2.43;2.33;;;;;;;17.37;25.78;95803.97;5091914;28;20462;-55
2022/01/14 10:40:23;;;;;;;3.20;3.10;;;;;;;15.54;25.81;95609.66;5091455;28;20513;-55
2022/01/14 10:43:01;;;;;;;2.97;2.67;;;;;;;16.84;25.42;95809.03;5091810;28;20522;-55
2022/01/14 10:45:51;;;;;;;4.93;1.80;;;;;;;16.07;26.52;95795.34;5091825;28;20450;-55
2022/01/14 10:48:29;;;;;;;3.13;2.90;;;;;;;17.03;26.42;95788.31;5091816;28;20428;-56
2022/01/14 10:51:01;;;;;;;2.20;2.10;;;;;;;16.41;27.33;95781.69;5091671;28;20501;-56
2022/01/14 10:53:33;;;;;;;1.33;1.27;;;;;;;17.54;25.75;95778.16;5091287;28;20908;-56
2022/01/14 10:56:03;;;;;;;2.57;2.37;;;;;;;17.01;25.50;95764.53;5091397;28;20479;-55
2022/01/14 10:58:35;;;;;;;3.37;2.77;;;;;;;16.47;26.03;95749.19;5092168;28;20899;-55
2022/01/14 11:01:17;;;;;;;2.70;1.60;;;;;;;16.78;26.30;95743.28;5089421;28;20510;-56
2022/01/14 11:03:57;;;;;;;13.00;3.50;;;;;;;17.47;25.07;95742.94;5092011;28;20431;-56
2022/01/14 11:06:28;;;;;;;1.57;1.47;;;;;;;16.59;26.15;95746.06;5091597;28;20432;-55
2022/01/14 11:09:00;;;;;;;2.53;2.37;;;;;;;16.19;26.60;95742.19;5091903;28;20501;-55
2022/01/14 11:11:30;;;;;;;3.77;3.27;;;;;;;15.31;26.68;95650.59;5091491;28;20472;-55
2022/01/14 11:13:59;;;;;;;3.33;3.03;;;;;;;16.24;26.02;95726.06;5091537;28;20440;-55
2022/01/14 11:16:28;;;;;;;2.03;1.93;;;;;;;17.67;26.15;95704.16;5091378;28;20436;-55
2022/01/14 11:19:00;;;;;;;3.57;2.50;;;;;;;17.36;25.16;95714.75;5090616;28;20792;-55
2022/01/14 11:24:23;;;;;;;0.87;0.87;;;;;;;18.11;24.51;95689.97;5091600;28;20455;-56
2022/01/14 11:26:56;;;;;;;4.07;1.83;;;;;;;17.08;25.53;95686.44;5091308;28;20466;-56
2022/01/14 11:29:31;;;;;;;2.93;1.50;;;;;;;18.57;27.45;95671.56;5091388;28;20463;-56
2022/01/14 11:32:03;;;;;;;19.20;3.67;;;;;;;17.55;24.87;95677.13;5091314;28;20489;-56
2022/01/14 11:34:35;;;;;;;2.27;1.60;;;;;;;16.91;25.76;95670.22;5090453;28;20480;-56
2022/01/14 11:37:05;;;;;;;1.60;1.50;;;;;;;17.77;25.29;95661.03;5091195;28;20486;-56
2022/01/14 11:39:41;;;;;;;1.23;1.13;;;;;;;17.91;24.79;95656.38;5091278;28;20540;-56
2022/01/14 11:42:14;;;;;;;1.20;1.20;;;;;;;16.86;25.66;95656.94;5091261;28;20468;-56
2022/01/14 11:44:54;;;;;;;8.37;2.10;;;;;;;17.22;25.25;95640.88;5091257;28;20483;-56
2022/01/14 11:48:07;;;;;;;2.13;1.53;;;;;;;17.61;25.14;95646.41;5093175;28;20875;-55
2022/01/14 11:51:00;;;;;;;5.87;3.80;;;;;;;17.75;25.33;95631.06;5094609;28;20442;-56
2022/01/14 11:53:44;;;;;;;2.10;2.00;;;;;;;18.59;23.76;95625.63;5093013;28;20791;-56
2022/01/14 11:56:49;;;;;;;6.07;2.67;;;;;;;19.26;23.54;95609.91;5094670;28;20817;-58
2022/01/14 11:59:40;;;;;;;4.27;1.70;;;;;;;18.65;24.12;95598.31;5094625;28;20574;-56
2022/01/14 12:02:34;;;;;;;1.53;1.43;;;;;;;18.35;24.80;95578.47;5094832;28;20889;-55
2022/01/14 12:05:23;;;;;;;1.37;1.27;;;;;;;18.79;23.97;95574.00;5094083;28;20435;-56
2022/01/14 12:08:15;;;;;;;1.90;1.03;;;;;;;19.22;24.07;95577.50;5094774;28;20437;-56
2022/01/14 12:11:01;;;;;;;1.30;1.20;;;;;;;18.56;24.15;95575.22;5094328;28;20871;-56
2022/01/14 12:13:49;;;;;;;3.10;2.90;;;;;;;17.51;25.25;95575.06;5094213;28;20475;-56
2022/01/14 12:16:38;;;;;;;1.90;1.80;;;;;;;18.28;26.76;95558.56;5094003;28;20444;-55
2022/01/14 12:19:19;;;;;;;20.63;4.00;;;;;;;17.51;25.33;95561.66;5094517;28;20471;-54
2022/01/14 12:22:08;;;;;;;9.47;3.60;;;;;;;17.69;25.36;95558.00;5093946;28;20440;-56